Time;durP1;ratioP1;P1;durP2;ratioP2;P2;SDS_P1;SDS_P2;PMS_P1;PMS_P2;Temp;Humidity;BMP_temperature;BMP_pressure;BME280_temperature;BME280_humidity;BME280_pressure;Samples;Min_cycle;Max_cycle;Signal;HPM_P1;HPM_P2
2022/01/25 00:26:16;;;;;;;42.00;25.60;;;5.80;99.90;;;;;;5037725;28;20203;-74
2022/01/25 00:28:47;;;;;;;48.92;24.85;;;5.80;99.90;;;;;;5036661;28;20514;-75
2022/01/25 00:31:13;;;;;;;46.10;25.67;;;5.80;99.90;;;;;;5037669;28;20087;-74
2022/01/25 00:33:43;;;;;;;41.35;25.05;;;5.80;99.90;;;;;;5036431;28;20041;-75
2022/01/25 00:36:12;;;;;;;39.38;22.73;;;5.70;99.90;;;;;;5037368;28;20082;-75
2022/01/25 00:38:39;;;;;;;44.30;22.90;;;5.70;99.90;;;;;;5037136;28;20052;-75
2022/01/25 00:41:04;;;;;;;38.35;22.80;;;5.70;99.90;;;;;;5035980;28;20045;-75
2022/01/25 00:43:31;;;;;;;42.65;22.95;;;5.70;99.90;;;;;;5035957;28;20043;-74
2022/01/25 00:46:00;;;;;;;42.03;23.73;;;5.70;99.90;;;;;;5037203;28;20065;-75
2022/01/25 00:56:27;;;;;;;43.60;25.25;;;5.70;99.90;;;;;;5037096;28;20061;-75
2022/01/25 00:58:52;;;;;;;44.58;25.27;;;5.70;99.90;;;;;;5044708;28;20099;-75
2022/01/25 01:01:19;;;;;;;40.35;24.00;;;5.70;99.90;;;;;;5041505;28;20072;-75
2022/01/25 01:03:45;;;;;;;48.65;26.65;;;5.70;99.90;;;;;;5043198;28;20505;-75
2022/01/25 01:06:11;;;;;;;42.92;24.52;;;5.70;99.90;;;;;;5044248;28;20061;-75
2022/01/25 01:08:37;;;;;;;40.42;23.25;;;5.70;99.90;;;;;;5046064;28;20053;-75
2022/01/25 01:11:06;;;;;;;45.67;24.10;;;5.70;99.90;;;;;;5045846;28;20056;-75
2022/01/25 01:13:52;;;;;;;43.70;25.80;;;5.70;99.90;;;;;;5043332;28;20375;-75
2022/01/25 01:33:09;;;;;;;39.83;25.20;;;5.70;99.90;;;;;;5043549;28;20056;-74
2022/01/25 01:35:45;;;;;;;38.95;22.40;;;5.70;99.90;;;;;;5043194;28;20354;-74
2022/01/25 01:43:39;;;;;;;42.60;23.15;;;5.70;99.90;;;;;;5043758;28;20163;-73
2022/01/25 01:48:42;;;;;;;45.05;25.15;;;5.70;99.90;;;;;;5043726;28;20053;-74
2022/01/25 01:51:16;;;;;;;36.67;23.75;;;5.70;99.90;;;;;;5042643;28;20060;-74
2022/01/25 01:53:43;;;;;;;46.85;23.88;;;5.70;99.90;;;;;;5044208;28;20051;-74
2022/01/25 01:56:09;;;;;;;38.30;21.98;;;5.70;99.90;;;;;;5037289;28;20936;-73
2022/01/25 01:58:36;;;;;;;44.55;26.48;;;5.70;99.90;;;;;;5042267;28;20148;-73
2022/01/25 02:01:06;;;;;;;40.88;24.83;;;5.70;99.90;;;;;;5042396;28;20072;-73
2022/01/25 02:03:31;;;;;;;41.17;24.45;;;5.70;99.90;;;;;;5043328;28;20370;-73
2022/01/25 02:05:57;;;;;;;34.65;23.25;;;5.60;99.90;;;;;;5043878;28;20060;-74
2022/01/25 02:08:23;;;;;;;42.50;24.75;;;5.60;99.90;;;;;;5042903;28;20041;-74
2022/01/25 02:10:48;;;;;;;43.75;27.20;;;5.60;99.90;;;;;;5040024;28;20508;-74
2022/01/25 02:13:14;;;;;;;50.70;26.27;;;5.60;99.90;;;;;;5040725;28;20135;-74
2022/01/25 02:15:45;;;;;;;34.88;22.58;;;5.60;99.90;;;;;;5039598;28;20045;-74
2022/01/25 02:23:44;;;;;;;47.40;24.77;;;5.60;99.90;;;;;;5034867;28;20072;-74
2022/01/25 02:26:10;;;;;;;50.28;26.55;;;5.50;99.90;;;;;;5040586;28;20889;-73
2022/01/25 02:28:38;;;;;;;46.38;25.63;;;5.60;99.90;;;;;;5040270;28;20047;-73
2022/01/25 02:31:06;;;;;;;39.55;25.13;;;5.60;99.90;;;;;;5038810;28;20122;-74
2022/01/25 02:33:32;;;;;;;46.00;27.80;;;5.60;99.90;;;;;;5038618;28;20059;-74
2022/01/25 02:36:00;;;;;;;44.42;25.10;;;5.50;99.90;;;;;;5038796;28;20052;-73
2022/01/25 02:38:28;;;;;;;49.03;27.20;;;5.60;99.90;;;;;;5038708;28;20053;-74
2022/01/25 02:40:55;;;;;;;46.65;25.00;;;5.60;99.90;;;;;;5038461;28;20110;-73
2022/01/25 02:43:22;;;;;;;48.38;25.75;;;5.60;99.90;;;;;;5038464;28;20049;-72
2022/01/25 02:46:17;;;;;;;47.03;27.20;;;5.60;99.90;;;;;;5040088;28;20144;-73
2022/01/25 02:48:56;;;;;;;45.72;27.63;;;5.60;99.90;;;;;;5038378;28;20518;-73
2022/01/25 02:51:26;;;;;;;;;;;5.60;99.90;;;;;;5040704;28;20312;-74
2022/01/25 02:53:52;;;;;;;45.53;23.77;;;5.60;99.90;;;;;;5040520;28;19947;-74
2022/01/25 02:56:18;;;;;;;47.40;28.20;;;5.60;99.90;;;;;;5040281;28;20492;-74
2022/01/25 02:58:44;;;;;;;44.47;26.35;;;5.60;99.90;;;;;;5039971;28;20092;-73
2022/01/25 03:01:10;;;;;;;48.70;26.70;;;5.60;99.90;;;;;;5040277;28;20132;-73
2022/01/25 03:03:36;;;;;;;51.95;28.17;;;5.60;99.90;;;;;;5037891;28;20087;-73
2022/01/25 03:06:02;;;;;;;44.28;25.00;;;5.60;99.90;;;;;;5036618;28;20140;-73
2022/01/25 03:08:28;;;;;;;45.83;27.40;;;5.60;99.90;;;;;;5038306;28;20053;-74
2022/01/25 03:10:54;;;;;;;43.75;26.95;;;5.60;99.90;;;;;;5037880;28;20053;-73
2022/01/25 03:13:25;;;;;;;38.78;23.23;;;5.60;99.90;;;;;;5037851;28;20059;-74
2022/01/25 03:21:04;;;;;;;47.60;26.83;;;5.70;99.90;;;;;;5039620;28;20065;-73
2022/01/25 03:23:32;;;;;;;46.92;25.00;;;5.70;99.90;;;;;;5039660;28;20067;-74
2022/01/25 03:25:58;;;;;;;48.42;30.65;;;5.70;99.90;;;;;;5037847;28;20040;-73
2022/01/25 03:28:23;;;;;;;48.05;26.50;;;5.70;99.90;;;;;;5039255;28;20063;-73
2022/01/25 03:30:50;;;;;;;49.28;26.52;;;5.70;99.90;;;;;;5038613;28;20047;-73
2022/01/25 03:33:17;;;;;;;43.30;24.35;;;5.70;99.90;;;;;;5039421;28;20055;-73
2022/01/25 03:35:43;;;;;;;42.80;25.58;;;5.70;99.90;;;;;;5039554;28;20114;-73
2022/01/25 03:38:09;;;;;;;52.08;26.98;;;5.70;99.90;;;;;;5039455;28;20063;-73
2022/01/25 03:40:35;;;;;;;45.05;27.25;;;5.70;99.90;;;;;;5037715;28;20132;-73
2022/01/25 03:43:03;;;;;;;48.25;26.58;;;5.70;99.90;;;;;;5037696;28;20052;-73
2022/01/25 03:45:32;;;;;;;45.30;24.30;;;5.60;99.90;;;;;;5037152;28;20061;-73
2022/01/25 03:50:24;;;;;;;46.45;27.52;;;5.60;99.90;;;;;;5039119;28;20745;-73
2022/01/25 03:52:50;;;;;;;42.42;25.42;;;5.70;99.90;;;;;;5036809;28;20041;-73
2022/01/25 03:55:15;;;;;;;46.80;27.00;;;5.60;99.90;;;;;;5037959;28;20040;-74
2022/01/25 03:57:41;;;;;;;45.17;26.42;;;5.60;99.90;;;;;;5038272;28;20084;-73
2022/01/25 04:00:08;;;;;;;47.78;30.10;;;5.60;99.90;;;;;;5037509;28;20045;-73
2022/01/25 04:02:35;;;;;;;43.13;26.17;;;5.60;99.90;;;;;;5037302;28;20081;-73
2022/01/25 04:05:02;;;;;;;48.40;28.00;;;5.60;99.90;;;;;;5038844;28;20068;-74
2022/01/25 04:07:44;;;;;;;41.67;25.73;;;5.60;99.90;;;;;;5037228;28;20135;-73
2022/01/25 04:10:09;;;;;;;52.10;29.08;;;5.60;99.90;;;;;;5038649;28;20059;-73
2022/01/25 04:12:35;;;;;;;46.65;25.13;;;5.60;99.90;;;;;;5037450;28;20574;-73
2022/01/25 04:15:02;;;;;;;44.17;27.75;;;5.60;99.90;;;;;;5036614;28;20099;-73
2022/01/25 04:17:27;;;;;;;50.38;26.73;;;5.60;99.90;;;;;;5038555;28;20127;-74
2022/01/25 04:20:19;;;;;;;40.40;24.33;;;5.60;99.90;;;;;;5036718;28;20053;-74
2022/01/25 04:25:23;;;;;;;48.08;25.60;;;5.60;99.90;;;;;;5038698;28;20131;-73
2022/01/25 04:27:49;;;;;;;51.83;26.23;;;5.60;99.90;;;;;;5037018;28;20053;-74
2022/01/25 04:30:14;;;;;;;49.95;26.17;;;5.70;99.90;;;;;;5038167;28;20056;-73
2022/01/25 04:35:13;;;;;;;48.60;26.95;;;5.60;99.90;;;;;;5038703;28;20061;-73
2022/01/25 04:48:56;;;;;;;39.40;25.02;;;5.50;99.90;;;;;;5038296;28;20114;-73
2022/01/25 04:52:09;;;;;;;40.60;23.10;;;5.60;99.90;;;;;;5037872;28;20076;-73
2022/01/25 04:56:57;;;;;;;42.90;24.92;;;5.70;99.90;;;;;;5038821;28;20706;-74
2022/01/25 05:01:51;;;;;;;44.85;25.15;;;5.50;99.90;;;;;;5037638;28;20064;-73
2022/01/25 05:04:24;;;;;;;42.55;24.13;;;5.50;99.90;;;;;;5036820;28;20083;-74
2022/01/25 05:06:53;;;;;;;45.65;26.60;;;5.50;99.90;;;;;;5038443;28;20080;-74
2022/01/25 05:09:20;;;;;;;49.55;26.85;;;5.50;99.90;;;;;;5036806;28;20901;-74
2022/01/25 05:11:48;;;;;;;43.65;24.42;;;5.50;99.90;;;;;;5038148;28;20081;-74
2022/01/25 05:14:24;;;;;;;50.42;26.75;;;5.50;99.90;;;;;;5036709;28;20060;-74
2022/01/25 05:24:27;;;;;;;33.55;21.60;;;5.60;99.90;;;;;;5036582;28;20052;-74
2022/01/25 05:26:53;;;;;;;43.95;23.98;;;5.50;99.90;;;;;;5036800;28;20463;-74
2022/01/25 05:29:19;;;;;;;49.42;28.55;;;5.60;99.90;;;;;;5036488;28;20085;-74
2022/01/25 05:31:45;;;;;;;40.65;23.08;;;5.50;99.90;;;;;;5038105;28;20151;-74
2022/01/25 05:34:10;;;;;;;41.55;24.50;;;5.50;99.90;;;;;;5037134;28;20119;-74
2022/01/25 05:36:37;;;;;;;46.28;27.25;;;5.50;99.90;;;;;;5036013;28;20049;-74
2022/01/25 05:39:18;;;;;;;39.25;22.95;;;5.50;99.90;;;;;;5035715;28;20049;-75
2022/01/25 05:41:53;;;;;;;41.10;25.63;;;5.50;99.90;;;;;;5036032;28;20049;-75
2022/01/25 05:44:37;;;;;;;46.92;27.08;;;5.50;99.90;;;;;;5037785;28;20065;-74
2022/01/25 05:47:06;;;;;;;45.13;27.10;;;5.50;99.90;;;;;;5036342;28;20063;-74
2022/01/25 05:49:36;;;;;;;39.05;24.73;;;5.80;99.90;;;;;;5039307;28;20088;-74
2022/01/25 05:52:04;;;;;;;44.08;24.73;;;5.40;99.90;;;;;;5039807;28;20069;-74
2022/01/25 05:54:29;;;;;;;53.00;27.63;;;5.40;99.90;;;;;;5040483;28;20111;-74
2022/01/25 05:56:55;;;;;;;44.65;23.77;;;5.40;99.90;;;;;;5040102;28;20423;-75
2022/01/25 05:59:21;;;;;;;40.30;24.13;;;5.40;99.90;;;;;;5040168;28;20099;-74
2022/01/25 06:01:46;;;;;;;41.53;23.35;;;5.40;99.90;;;;;;5037801;28;20135;-75
2022/01/25 06:04:12;;;;;;;49.08;25.17;;;5.40;99.90;;;;;;5040351;28;20341;-75
2022/01/25 06:06:38;;;;;;;49.67;27.23;;;5.40;99.90;;;;;;5036130;28;20056;-74
2022/01/25 06:09:04;;;;;;;46.70;26.05;;;5.40;99.90;;;;;;5032023;28;20052;-74
2022/01/25 06:11:29;;;;;;;41.95;24.13;;;5.40;99.90;;;;;;5027152;28;20044;-74
2022/01/25 06:13:55;;;;;;;44.78;23.77;;;5.40;99.90;;;;;;5029038;28;20057;-75
2022/01/25 06:16:20;;;;;;;44.05;25.52;;;5.50;99.90;;;;;;5033176;28;20061;-74
2022/01/25 06:18:46;;;;;;;47.55;24.83;;;5.50;99.90;;;;;;5032755;28;20052;-74
2022/01/25 06:21:11;;;;;;;44.22;27.85;;;5.50;99.90;;;;;;5036892;28;20041;-74
2022/01/25 06:23:37;;;;;;;46.78;27.10;;;5.60;99.90;;;;;;5027357;28;20052;-74
2022/01/25 06:26:03;;;;;;;47.90;27.92;;;5.50;99.90;;;;;;5026696;28;20041;-74
2022/01/25 06:28:29;;;;;;;43.78;26.17;;;5.50;99.90;;;;;;5026807;28;20812;-74
2022/01/25 06:30:55;;;;;;;43.03;24.95;;;5.50;99.90;;;;;;5036461;28;20041;-74
2022/01/25 06:33:20;;;;;;;44.85;26.05;;;5.50;99.90;;;;;;5025832;28;20120;-74
2022/01/25 06:35:46;;;;;;;42.45;25.63;;;5.50;99.90;;;;;;5023374;28;20045;-74
2022/01/25 06:38:13;;;;;;;48.92;26.48;;;5.50;99.90;;;;;;5065120;28;20091;-74
2022/01/25 06:40:39;;;;;;;46.97;26.20;;;5.50;99.90;;;;;;5034841;28;20040;-74
2022/01/25 06:43:04;;;;;;;42.20;24.40;;;5.50;99.90;;;;;;5033787;28;20037;-74
2022/01/25 06:45:30;;;;;;;48.08;23.88;;;5.50;99.90;;;;;;5031870;28;20045;-74
2022/01/25 06:47:57;;;;;;;45.38;28.10;;;5.50;99.90;;;;;;5031388;28;20060;-74
2022/01/25 06:50:23;;;;;;;44.88;24.23;;;5.60;99.90;;;;;;5030840;28;20061;-74
2022/01/25 06:52:50;;;;;;;59.28;28.80;;;5.60;99.90;;;;;;5028503;28;20199;-74
2022/01/25 06:55:18;;;;;;;50.20;26.98;;;5.60;99.90;;;;;;5032876;28;20068;-74
2022/01/25 06:57:44;;;;;;;44.17;25.15;;;5.60;99.90;;;;;;5028697;28;20098;-74
2022/01/25 07:00:22;;;;;;;43.25;25.05;;;5.60;99.90;;;;;;5033756;28;20052;-75
2022/01/25 07:02:49;;;;;;;43.35;25.42;;;5.60;99.90;;;;;;5031528;28;20645;-75
2022/01/25 07:05:14;;;;;;;40.63;22.90;;;5.60;99.90;;;;;;5031086;28;20072;-74
2022/01/25 07:07:41;;;;;;;44.45;25.15;;;5.60;99.90;;;;;;5034266;28;20147;-74
2022/01/25 07:10:08;;;;;;;49.65;28.13;;;5.50;99.90;;;;;;5031566;28;20496;-74
2022/01/25 07:12:34;;;;;;;47.63;27.05;;;5.50;99.90;;;;;;5031746;28;20045;-74
2022/01/25 07:14:59;;;;;;;51.08;27.90;;;5.50;99.90;;;;;;5031123;28;20090;-74
2022/01/25 07:17:25;;;;;;;46.67;24.10;;;5.60;99.90;;;;;;5028649;28;20045;-74
2022/01/25 07:19:51;;;;;;;51.67;27.15;;;5.60;99.90;;;;;;5065537;28;20059;-75
2022/01/25 07:22:17;;;;;;;38.83;23.52;;;5.60;99.90;;;;;;5033084;28;20080;-74
2022/01/25 07:24:43;;;;;;;47.00;26.55;;;5.60;99.90;;;;;;5032806;28;20045;-74
2022/01/25 07:27:08;;;;;;;46.20;25.40;;;5.60;99.90;;;;;;5034199;28;20503;-74
2022/01/25 07:29:34;;;;;;;44.92;27.20;;;5.60;99.90;;;;;;5032958;28;20040;-74
2022/01/25 07:32:00;;;;;;;41.60;25.42;;;5.60;99.90;;;;;;5033729;28;20082;-74
2022/01/25 07:34:26;;;;;;;45.95;26.13;;;5.70;99.90;;;;;;5035745;28;20060;-75
2022/01/25 07:36:52;;;;;;;47.05;26.75;;;5.50;99.90;;;;;;5036726;28;20052;-75
2022/01/25 07:39:18;;;;;;;44.65;23.85;;;5.60;99.90;;;;;;5035552;28;20052;-75
2022/01/25 07:41:45;;;;;;;52.78;25.10;;;5.50;99.90;;;;;;5037053;28;20794;-75
2022/01/25 07:44:10;;;;;;;50.45;27.73;;;5.50;99.90;;;;;;5035678;28;20591;-75
2022/01/25 07:46:36;;;;;;;45.58;25.33;;;5.50;99.90;;;;;;5034931;28;20064;-75
2022/01/25 07:49:03;;;;;;;49.33;26.83;;;5.50;99.90;;;;;;5034780;28;20063;-79
2022/01/25 07:51:29;;;;;;;41.88;26.05;;;5.50;99.90;;;;;;5036453;28;20048;-76
2022/01/25 07:53:56;;;;;;;46.90;25.80;;;5.50;99.90;;;;;;5036308;28;20143;-76
2022/01/25 07:56:22;;;;;;;45.17;27.02;;;5.50;99.90;;;;;;5034413;28;20049;-76
2022/01/25 07:58:48;;;;;;;49.33;28.83;;;5.60;99.90;;;;;;5036193;28;20101;-76
2022/01/25 08:01:15;;;;;;;44.30;25.83;;;5.60;99.90;;;;;;5035029;28;20052;-76
2022/01/25 08:03:42;;;;;;;43.92;25.13;;;5.60;99.90;;;;;;5036167;28;20641;-76
2022/01/25 08:06:09;;;;;;;55.55;27.67;;;5.60;99.90;;;;;;5030272;28;20088;-77
2022/01/25 08:08:35;;;;;;;49.85;27.90;;;5.60;99.90;;;;;;5028230;28;20056;-76
2022/01/25 08:11:00;;;;;;;48.75;27.27;;;5.60;99.90;;;;;;5030554;28;20041;-76
2022/01/25 08:13:26;;;;;;;49.80;26.90;;;5.60;99.90;;;;;;5035202;28;20040;-76
2022/01/25 08:15:51;;;;;;;44.17;24.92;;;5.60;99.90;;;;;;5035153;28;20045;-76
2022/01/25 08:18:17;;;;;;;47.00;26.70;;;5.60;99.90;;;;;;5035300;28;20186;-76
2022/01/25 08:20:43;;;;;;;44.55;24.60;;;5.60;99.90;;;;;;5035336;28;20044;-76
2022/01/25 08:23:08;;;;;;;43.22;25.65;;;5.70;99.90;;;;;;5035113;28;20778;-76
2022/01/25 08:25:34;;;;;;;43.63;26.63;;;5.70;99.90;;;;;;5035812;28;20051;-76
2022/01/25 08:28:00;;;;;;;49.50;27.50;;;5.70;99.90;;;;;;5034403;28;20823;-76
2022/01/25 08:30:26;;;;;;;43.75;26.88;;;5.70;99.90;;;;;;5035873;28;20040;-76
2022/01/25 08:32:52;;;;;;;39.45;23.75;;;5.70;99.90;;;;;;5034409;28;20041;-76
2022/01/25 08:35:18;;;;;;;51.33;28.58;;;5.70;99.90;;;;;;5033348;28;20048;-77
2022/01/25 08:37:44;;;;;;;39.47;24.25;;;5.70;99.90;;;;;;5034149;28;20053;-76
2022/01/25 08:40:10;;;;;;;42.08;24.95;;;5.70;99.90;;;;;;5033530;28;20057;-75
2022/01/25 08:42:36;;;;;;;47.80;27.30;;;6.50;99.90;;;;;;5033537;28;20782;-76
2022/01/25 08:45:04;;;;;;;48.25;26.00;;;5.80;99.90;;;;;;5034803;28;20134;-75
2022/01/25 08:47:30;;;;;;;49.80;28.95;;;5.80;99.90;;;;;;5035476;28;20250;-75
2022/01/25 08:49:56;;;;;;;50.55;29.65;;;5.80;99.90;;;;;;5034083;28;20485;-76
2022/01/25 08:52:21;;;;;;;52.03;24.48;;;5.70;99.90;;;;;;5037155;28;20044;-75
2022/01/25 08:54:47;;;;;;;45.25;26.77;;;5.70;99.90;;;;;;5035481;28;20140;-76
2022/01/25 08:57:12;;;;;;;46.28;28.10;;;5.70;99.90;;;;;;5037921;28;20052;-76
2022/01/25 08:59:38;;;;;;;46.20;25.65;;;5.80;99.90;;;;;;5036795;28;20048;-76
2022/01/25 09:02:04;;;;;;;43.40;22.88;;;5.80;99.90;;;;;;5037265;28;20053;-76
2022/01/25 09:04:30;;;;;;;49.50;27.10;;;5.90;99.90;;;;;;5035466;28;20067;-76
2022/01/25 09:06:55;;;;;;;46.97;27.58;;;5.90;99.90;;;;;;5038136;28;20755;-76
2022/01/25 09:09:21;;;;;;;46.28;25.00;;;5.90;99.90;;;;;;5036558;28;20096;-75
2022/01/25 09:11:47;;;;;;;54.25;27.88;;;5.80;99.90;;;;;;5037424;28;20045;-75
2022/01/25 09:14:13;;;;;;;47.45;25.58;;;5.90;99.90;;;;;;5036333;28;20514;-76
2022/01/25 09:16:39;;;;;;;46.15;26.65;;;5.90;99.90;;;;;;5035659;28;20781;-76
2022/01/25 09:19:06;;;;;;;43.67;25.10;;;5.90;99.90;;;;;;5036925;28;20132;-76
2022/01/25 09:21:32;;;;;;;51.15;27.63;;;5.90;99.90;;;;;;5039614;28;20083;-76
2022/01/25 09:23:58;;;;;;;45.65;25.23;;;5.90;99.90;;;;;;5041205;28;20053;-76
2022/01/25 09:26:24;;;;;;;48.55;29.02;;;5.80;99.90;;;;;;5039133;28;20037;-76
2022/01/25 09:28:53;;;;;;;50.28;27.35;;;5.80;99.90;;;;;;5038930;28;20052;-76
2022/01/25 09:31:19;;;;;;;52.78;25.67;;;5.80;99.90;;;;;;5041388;28;20041;-76
2022/01/25 09:33:45;;;;;;;51.58;28.40;;;5.80;99.90;;;;;;5040510;28;20131;-76
2022/01/25 09:36:10;;;;;;;46.15;24.65;;;5.80;99.90;;;;;;5041272;28;20807;-77
2022/01/25 09:38:36;;;;;;;45.95;28.17;;;5.80;99.90;;;;;;5040303;28;20049;-75
2022/01/25 09:41:02;;;;;;;44.50;23.30;;;5.70;99.90;;;;;;5040734;28;20053;-76
2022/01/25 09:43:28;;;;;;;46.78;27.40;;;5.80;99.90;;;;;;5040090;28;20056;-75
2022/01/25 09:45:54;;;;;;;48.05;27.67;;;5.80;99.90;;;;;;5041785;28;20150;-76
2022/01/25 09:48:21;;;;;;;51.00;26.52;;;5.70;99.90;;;;;;5040274;28;20118;-75
2022/01/25 09:50:47;;;;;;;54.55;28.40;;;5.70;99.90;;;;;;5040193;28;20055;-75
2022/01/25 09:53:13;;;;;;;53.42;26.30;;;5.70;99.90;;;;;;5040803;28;20060;-75
2022/01/25 09:55:42;;;;;;;50.30;29.23;;;6.20;99.90;;;;;;5040232;28;20415;-76
2022/01/25 09:58:08;;;;;;;51.33;29.50;;;5.70;99.90;;;;;;5042058;28;20499;-76
2022/01/25 10:00:36;;;;;;;49.28;25.42;;;5.70;99.90;;;;;;5039412;28;20597;-75
2022/01/25 10:03:12;;;;;;;46.13;25.83;;;5.60;99.90;;;;;;5038354;28;20048;-77
2022/01/25 10:05:45;;;;;;;47.35;26.98;;;5.70;99.90;;;;;;5038596;28;20049;-78
2022/01/25 10:08:22;;;;;;;44.63;24.55;;;5.60;99.90;;;;;;5073340;28;20084;-70
2022/01/25 10:10:52;;;;;;;39.35;23.02;;;5.70;99.90;;;;;;5041448;28;20135;-70
2022/01/25 10:13:21;;;;;;;38.92;22.52;;;5.80;99.90;;;;;;5041093;28;20187;-69
2022/01/25 10:15:48;;;;;;;47.92;25.85;;;5.80;99.90;;;;;;5040537;28;20041;-75
2022/01/25 10:18:15;;;;;;;47.63;24.70;;;5.80;99.90;;;;;;5039786;28;20075;-74
2022/01/25 10:20:43;;;;;;;57.17;27.77;;;5.80;99.90;;;;;;5040433;28;20044;-75
2022/01/25 10:23:22;;;;;;;49.78;26.73;;;5.80;99.90;;;;;;5039518;28;20083;-75
2022/01/25 10:25:49;;;;;;;43.90;24.35;;;5.70;99.90;;;;;;5039593;28;20162;-75
2022/01/25 10:28:20;;;;;;;47.65;25.75;;;5.70;99.90;;;;;;5037116;28;20048;-74
2022/01/25 10:30:53;;;;;;;48.88;26.25;;;5.70;99.90;;;;;;5036888;28;20048;-74
2022/01/25 10:33:43;;;;;;;56.03;27.95;;;5.70;99.90;;;;;;5038192;28;20045;-74
2022/01/25 10:36:19;;;;;;;49.67;27.05;;;5.70;99.90;;;;;;5037569;28;20899;-74
2022/01/25 10:38:48;;;;;;;45.55;26.23;;;5.70;99.90;;;;;;5036373;28;20063;-74
2022/01/25 10:41:17;;;;;;;44.67;25.23;;;5.70;99.90;;;;;;5037426;28;20048;-75
2022/01/25 10:43:44;;;;;;;50.60;27.58;;;5.70;99.90;;;;;;5039076;28;20072;-74
2022/01/25 10:46:26;;;;;;;42.03;23.50;;;5.70;99.90;;;;;;5037474;28;20067;-74
2022/01/25 10:49:14;;;;;;;53.38;25.48;;;5.70;99.90;;;;;;5038110;28;20049;-74
2022/01/25 10:51:46;;;;;;;42.92;26.25;;;5.70;99.90;;;;;;5036991;28;20072;-74
2022/01/25 10:54:19;;;;;;;47.40;27.15;;;5.70;99.90;;;;;;5036915;28;20068;-80
2022/01/25 10:56:46;;;;;;;;;;;5.70;99.90;;;;;;5035760;28;20140;-80
2022/01/25 10:59:19;;;;;;;50.25;30.27;;;5.70;99.90;;;;;;5036097;28;20032;-78
2022/01/25 11:01:50;;;;;;;44.25;25.13;;;5.70;99.90;;;;;;5035084;28;20052;-77
2022/01/25 11:04:19;;;;;;;52.50;29.45;;;5.70;99.90;;;;;;5037824;28;20056;-77
2022/01/25 11:06:45;;;;;;;47.40;26.10;;;5.70;99.90;;;;;;5037338;28;20075;-77
2022/01/25 11:09:13;;;;;;;47.90;28.70;;;5.70;99.90;;;;;;5038049;28;20047;-77
2022/01/25 11:11:45;;;;;;;52.30;26.50;;;5.80;99.90;;;;;;5037855;28;20064;-77
2022/01/25 11:16:59;;;;;;;50.30;29.20;;;5.70;99.90;;;;;;5037973;28;20064;-78
2022/01/25 11:19:25;;;;;;;47.72;25.13;;;5.80;99.90;;;;;;5038319;28;20044;-80
2022/01/25 11:21:52;;;;;;;50.80;26.95;;;5.80;99.90;;;;;;5036613;28;20498;-80
2022/01/25 11:24:20;;;;;;;43.13;23.50;;;5.80;99.90;;;;;;5036343;28;20052;-74
2022/01/25 11:26:48;;;;;;;49.65;26.45;;;5.80;99.90;;;;;;5037330;28;20542;-76
2022/01/25 11:29:15;;;;;;;48.65;27.90;;;5.90;99.90;;;;;;5037353;28;20816;-76
2022/01/25 11:31:47;;;;;;;46.20;25.83;;;5.90;99.90;;;;;;5036452;28;20127;-77
2022/01/25 11:34:14;;;;;;;40.95;24.73;;;5.90;99.90;;;;;;5039165;28;20101;-76
2022/01/25 11:36:52;;;;;;;58.78;29.30;;;5.90;99.90;;;;;;5038064;28;20057;-76
2022/01/25 11:39:26;;;;;;;50.40;26.15;;;5.90;99.90;;;;;;5036494;28;20653;-76
2022/01/25 11:42:34;;;;;;;49.08;27.33;;;5.90;99.90;;;;;;5035960;28;20136;-76
2022/01/25 11:44:59;;;;;;;46.35;26.13;;;5.90;99.90;;;;;;5036243;28;20953;-76
2022/01/25 11:47:37;;;;;;;49.90;26.80;;;5.90;99.90;;;;;;5037126;28;20064;-76
2022/01/25 11:50:09;;;;;;;46.67;25.02;;;5.90;99.90;;;;;;5036302;28;20098;-76
2022/01/25 11:52:34;;;;;;;54.20;29.98;;;5.80;99.90;;;;;;5036298;28;20499;-75
2022/01/25 11:55:21;;;;;;;46.63;27.55;;;5.80;99.90;;;;;;5037197;28;20066;-76
2022/01/25 11:57:48;;;;;;;46.55;25.42;;;5.80;99.90;;;;;;5038532;28;20037;-76
2022/01/25 12:00:14;;;;;;;51.88;28.20;;;5.80;99.90;;;;;;5037347;28;20488;-76
2022/01/25 12:02:46;;;;;;;51.38;26.63;;;5.80;99.90;;;;;;5038945;28;20798;-76
2022/01/25 12:05:18;;;;;;;51.50;27.97;;;5.80;99.90;;;;;;5037556;28;20044;-76
2022/01/25 12:08:07;;;;;;;54.00;27.50;;;5.80;99.90;;;;;;5038774;28;20049;-76
2022/01/25 12:10:40;;;;;;;50.38;28.17;;;5.80;99.90;;;;;;5038128;28;20092;-76
2022/01/25 12:13:21;;;;;;;50.50;27.63;;;5.80;99.90;;;;;;5036880;28;20044;-76
2022/01/25 12:16:23;;;;;;;45.90;25.80;;;5.80;99.90;;;;;;5037946;28;20057;-75
2022/01/25 12:18:54;;;;;;;48.63;27.40;;;5.80;99.90;;;;;;5035701;28;20805;-76
2022/01/25 12:21:48;;;;;;;54.05;29.08;;;5.80;99.90;;;;;;5036681;28;20221;-75
2022/01/25 12:24:44;;;;;;;54.10;27.88;;;5.70;99.90;;;;;;5037199;28;20063;-76
2022/01/25 12:27:20;;;;;;;53.47;27.15;;;5.70;99.90;;;;;;5031209;28;20103;-76
2022/01/25 12:29:58;;;;;;;50.47;29.02;;;5.70;99.90;;;;;;5038787;28;20113;-76
2022/01/25 12:32:29;;;;;;;51.72;26.45;;;5.80;99.90;;;;;;5037339;28;20113;-77
2022/01/25 12:35:13;;;;;;;60.00;28.80;;;5.80;99.90;;;;;;5036602;28;20126;-76
2022/01/25 12:37:45;;;;;;;55.38;29.88;;;5.70;99.90;;;;;;5036596;28;20435;-76
2022/01/25 12:40:26;;;;;;;47.97;27.70;;;5.60;99.90;;;;;;5036960;28;20056;-76
2022/01/25 12:42:53;;;;;;;46.40;27.73;;;5.60;99.90;;;;;;5037789;28;20056;-76
2022/01/25 12:45:20;;;;;;;50.35;26.77;;;5.70;99.90;;;;;;5038007;28;20133;-77
2022/01/25 12:47:58;;;;;;;47.53;25.90;;;5.70;99.90;;;;;;5038735;28;20053;-77
2022/01/25 12:50:25;;;;;;;50.15;28.13;;;5.70;99.90;;;;;;5036475;28;20053;-76
2022/01/25 12:52:51;;;;;;;56.58;29.30;;;5.80;99.90;;;;;;5037913;28;20567;-76
2022/01/25 12:55:24;;;;;;;55.67;27.70;;;5.80;99.90;;;;;;5037162;28;20052;-76
2022/01/25 12:57:52;;;;;;;49.97;28.48;;;5.80;99.90;;;;;;5037560;28;20076;-76
2022/01/25 13:00:19;;;;;;;50.88;26.80;;;5.80;99.90;;;;;;5036440;28;20160;-76
2022/01/25 13:02:44;;;;;;;46.05;26.95;;;5.80;99.90;;;;;;5037067;28;20064;-77
2022/01/25 13:05:21;;;;;;;47.92;27.73;;;5.80;99.90;;;;;;5038637;28;20037;-77
2022/01/25 13:07:48;;;;;;;52.70;28.58;;;5.70;99.90;;;;;;5038293;28;20154;-76
2022/01/25 13:10:30;;;;;;;53.53;27.75;;;5.70;99.90;;;;;;5037992;28;20064;-76
2022/01/25 13:13:10;;;;;;;45.20;27.30;;;5.70;99.90;;;;;;5038224;28;20471;-76
2022/01/25 13:18:11;;;;;;;53.42;27.90;;;5.70;99.90;;;;;;5037918;28;20049;-76
2022/01/25 13:20:39;;;;;;;48.88;26.90;;;5.70;99.90;;;;;;5037879;28;20136;-77
2022/01/25 13:23:05;;;;;;;56.17;29.20;;;5.70;99.90;;;;;;5036485;28;20057;-76
2022/01/25 13:25:53;;;;;;;59.13;30.33;;;5.70;99.90;;;;;;5037516;28;20048;-77
2022/01/25 13:31:12;;;;;;;53.53;31.85;;;5.70;99.90;;;;;;5037962;28;20750;-79
2022/01/25 13:33:38;;;;;;;46.47;25.80;;;5.60;99.90;;;;;;5036049;28;20721;-77
2022/01/25 13:36:07;;;;;;;50.97;27.40;;;5.70;99.90;;;;;;5038161;28;20893;-77
2022/01/25 13:38:35;;;;;;;49.58;24.35;;;5.60;99.90;;;;;;5034845;28;20041;-81
2022/01/25 13:46:36;;;;;;;50.33;27.73;;;5.70;99.90;;;;;;5037712;28;20734;-76
2022/01/25 13:49:06;;;;;;;48.70;27.55;;;5.70;99.90;;;;;;5038077;28;20847;-76
2022/01/25 13:51:46;;;;;;;60.10;27.42;;;5.70;99.90;;;;;;5037197;28;20052;-76
2022/01/25 13:54:17;;;;;;;63.10;29.10;;;5.70;99.90;;;;;;5065486;28;20053;-77
2022/01/25 13:56:44;;;;;;;50.42;28.00;;;6.40;99.90;;;;;;5028713;28;20045;-76
2022/01/25 13:59:11;;;;;;;56.95;30.15;;;5.60;99.90;;;;;;5031404;28;20040;-75
2022/01/25 14:01:40;;;;;;;44.80;25.67;;;5.60;99.90;;;;;;5032779;28;20044;-76
2022/01/25 14:04:15;;;;;;;53.25;29.90;;;5.60;99.90;;;;;;5028942;28;20076;-76
2022/01/25 14:06:53;;;;;;;51.78;28.23;;;5.60;99.90;;;;;;5031329;28;20128;-75
2022/01/25 14:09:27;;;;;;;50.72;28.27;;;5.60;99.90;;;;;;5036111;28;20060;-75
2022/01/25 14:23:36;;;;;;;52.15;29.23;;;5.60;99.90;;;;;;5059816;28;20087;-76
2022/01/25 14:25:42;;;;;;;64.03;31.42;;;5.60;99.90;;;;;;5047249;28;20136;-77
2022/01/25 14:28:15;;;;;;;53.22;29.25;;;5.60;99.90;;;;;;5040079;28;20049;-79
2022/01/25 14:30:46;;;;;;;48.40;25.48;;;5.50;99.90;;;;;;5039931;28;20092;-79
2022/01/25 14:33:15;;;;;;;55.15;28.92;;;5.60;99.90;;;;;;5039673;28;20073;-75
2022/01/25 14:35:44;;;;;;;56.60;29.73;;;5.70;99.90;;;;;;5037555;28;20061;-75
2022/01/25 14:38:22;;;;;;;48.20;26.33;;;5.60;99.90;;;;;;5030524;28;21167;-75
2022/01/25 14:41:03;;;;;;;50.45;26.20;;;5.70;99.90;;;;;;5033156;28;20051;-79
2022/01/25 14:43:31;;;;;;;48.78;25.92;;;5.70;99.90;;;;;;5032582;28;20052;-74
2022/01/25 14:46:09;;;;;;;47.97;28.48;;;5.60;99.90;;;;;;5038992;28;20790;-75
2022/01/25 14:48:37;;;;;;;48.97;27.23;;;5.60;99.90;;;;;;5034445;28;20041;-75
2022/01/25 14:51:09;;;;;;;46.08;26.17;;;5.60;99.90;;;;;;5035907;28;20094;-75
2022/01/25 14:53:35;;;;;;;49.58;25.75;;;5.60;99.90;;;;;;5038537;28;20064;-75